You are listening to:
KPWT CTAF - Bremerton, Washington, United States

KPWT 210656Z AUTO 00000KT 10SM FEW095 09/08 A2997 RMK AO2 SLP155 T00890083

If stream doesn't start automatically press the play button
If stream stops then reload player then press play